Kezdőlap
METAR-TAF:

METAR-TAF

Repülőterek :

Malé, Maldív-szigetek

földrajzi szélesség: 04-12N, földrajzi hosszúság: 073-32E, magasság: 2 m

Jelenlegi meteorológiai megfigyelések

A jelentés 37 perccel ezelõtt készült, 21:00 UTC
Északkeleti szél 6 kt
Hőmérséklet 27°C
Páratartalom 70%
Légköri nyomás 1012 hPa
Látótávolság: 5000 m
Kevés felhő 1800 lábon
Szórványos felhőzet 28000 lábon
Száraz légköri homály

METAR: VRMM 182100Z 04006KT 5000 HZ FEW018 SCT280 27/21 Q1012 NOSIG

Idő: 02:37 (21:37 UTC)

Előrejelzés

A jelentés 4 órával és 37 perccel ezelõtt készült, 17:00 UTC
Az előrejelzés 18-én 18 óra UTC és 19-én 24 óra UTC között érvényes
Kelet-északkeleti szél 12 kt
Látótávolság: 5000 m
Kevés felhő 1800 lábon
Száraz légköri homály
18-én 18 óra UTC és 18-én 24 óra UTC között ideiglenes
Kevés felhő 1800 lábon, Cumulonimbus.

TAF: VRMM 181700Z 1818/1924 07012KT 5000 HZ FEW018 TEMPO 1818/1824 FEW018CB

Meteorológiai megfigyelések és előrejelzések több, mint 4000 repülőtéren (METAR és TAF jelentéseket).

A térképen piros és sárga pontok jelzik az elérhető meteorológiai állomásokat.

Mozgassa az egeret a pont fölött, hogy megjelenjen az állomás neve.

Azután kattintson az időjárási megfigyelések és előrejelzések megtekintéséhez.

A térkép megváltoztatása: kattintson a fekete keresztel jelölt zöld gombra ráközelítéshez, a vonallal jelölt zöld gombra távolításhoz, vagy a zöld nyilakra a szomszédos térképek eléréséhez.


METAR-TAF: